Time;durP1;ratioP1;P1;durP2;ratioP2;P2;SDS_P1;SDS_P2;PMS_P1;PMS_P2;Temp;Humidity;BMP_temperature;BMP_pressure;BME280_temperature;BME280_humidity;BME280_pressure;Samples;Min_cycle;Max_cycle;Signal;HPM_P1;HPM_P2
2022/01/03 00:00:54;;;;;;;;;3.00;1.00;;;;;14.96;61.38;101514.53;5023043;28;46066;-64
2022/01/03 00:03:19;;;;;;;;;2.25;2.00;;;;;14.94;61.49;101515.53;5022722;28;45332;-64
2022/01/03 00:05:45;;;;;;;;;4.75;2.00;;;;;14.91;61.53;101510.28;5015657;28;45443;-64
2022/01/03 00:08:11;;;;;;;;;2.00;1.00;;;;;14.95;61.70;101517.28;5022737;28;45508;-64
2022/01/03 00:10:36;;;;;;;;;5.00;2.00;;;;;14.90;61.82;101517.47;5022158;28;45529;-64
2022/01/03 00:13:04;;;;;;;;;3.75;1.00;;;;;14.98;61.36;101527.91;5003690;28;45275;-64
2022/01/03 00:15:29;;;;;;;;;7.75;3.00;;;;;14.95;61.48;101523.56;4995150;28;45367;-64
2022/01/03 00:17:55;;;;;;;;;4.75;2.00;;;;;14.95;61.45;101530.72;5015087;28;45230;-64
2022/01/03 00:20:23;;;;;;;;;10.00;4.25;;;;;14.94;61.52;101512.84;5021897;28;46797;-64
2022/01/03 00:22:56;;;;;;;;;2.00;2.00;;;;;14.95;61.29;101526.25;5022276;28;45392;-64
2022/01/03 00:25:23;;;;;;;;;2.50;1.00;;;;;14.95;61.45;101537.00;5008343;28;45357;-64
2022/01/03 00:28:03;;;;;;;;;2.50;1.75;;;;;14.95;61.44;101530.72;5021461;28;45508;-64
2022/01/03 00:30:31;;;;;;;;;6.00;3.00;;;;;14.91;61.30;101540.72;5013726;28;45618;-64
2022/01/03 00:32:57;;;;;;;;;4.75;2.00;;;;;14.94;61.47;101550.50;5022088;28;45494;-64
2022/01/03 00:35:23;;;;;;;;;2.50;2.00;;;;;14.95;61.25;101541.47;5022164;28;45303;-64
2022/01/03 00:37:49;;;;;;;;;3.00;1.00;;;;;14.93;61.35;101530.78;5021895;28;45756;-64
2022/01/03 00:40:18;;;;;;;;;2.00;1.25;;;;;14.98;61.52;101546.75;5020376;28;48562;-64
2022/01/03 00:42:44;;;;;;;;;2.00;1.50;;;;;14.94;61.22;101545.13;5003815;28;45337;-64
2022/01/03 00:45:09;;;;;;;;;4.00;2.25;;;;;14.91;61.61;101539.84;5014888;28;45324;-64
2022/01/03 00:47:35;;;;;;;;;3.75;1.25;;;;;14.94;61.25;101550.50;5019691;28;45476;-64
2022/01/03 00:50:10;;;;;;;;;2.25;2.00;;;;;14.99;61.33;101559.25;5021095;28;45407;-64
2022/01/03 00:52:36;;;;;;;;;3.25;1.00;;;;;14.97;61.36;101545.00;5018966;28;45526;-64
2022/01/03 00:55:03;;;;;;;;;4.00;1.25;;;;;14.97;61.25;101548.56;5021646;28;45249;-64
2022/01/03 00:57:58;;;;;;;;;3.50;2.25;;;;;14.96;61.31;101543.25;5003345;28;45588;-64
2022/01/03 01:00:23;;;;;;;;;2.25;2.25;;;;;14.90;61.43;101547.06;5008876;28;48341;-64
2022/01/03 01:02:56;;;;;;;;;2.00;1.00;;;;;14.90;61.33;101544.34;5021550;28;45234;-64
2022/01/03 01:05:23;;;;;;;;;2.00;2.00;;;;;14.92;61.30;101547.84;5020352;28;45198;-64
2022/01/03 01:07:56;;;;;;;;;4.00;3.00;;;;;14.95;61.48;101550.44;5021622;28;45438;-64
2022/01/03 01:10:25;;;;;;;;;2.50;1.00;;;;;14.90;61.37;101544.34;5020008;28;48164;-64
2022/01/03 01:12:51;;;;;;;;;3.00;2.00;;;;;14.96;61.39;101551.31;5021386;28;45405;-64
2022/01/03 01:15:16;;;;;;;;;2.00;2.00;;;;;14.95;61.21;101555.81;5019294;28;45344;-64
2022/01/03 01:17:42;;;;;;;;;1.50;1.00;;;;;14.98;61.20;101563.78;5021215;28;45368;-64
2022/01/03 01:20:09;;;;;;;;;1.50;1.00;;;;;14.99;61.25;101559.25;5021826;28;46144;-64
2022/01/03 01:22:35;;;;;;;;;3.00;1.50;;;;;14.97;61.25;101559.31;5030814;28;45253;-64
2022/01/03 01:25:25;;;;;;;;;4.25;2.50;;;;;14.94;61.21;101547.81;5023301;28;45488;-64
2022/01/03 01:27:53;;;;;;;;;1.00;0.25;;;;;15.00;61.30;101555.63;5002926;28;45950;-64
2022/01/03 01:30:27;;;;;;;;;3.50;2.00;;;;;15.01;61.41;101550.19;5021092;28;46109;-64
2022/01/03 01:32:56;;;;;;;;;3.00;2.00;;;;;15.00;61.44;101548.44;5021009;28;45315;-64
2022/01/03 01:35:23;;;;;;;;;6.50;1.75;;;;;15.00;61.42;101548.44;5021315;28;45167;-64
2022/01/03 01:37:55;;;;;;;;;3.50;1.75;;;;;14.98;61.42;101544.06;5024594;28;45518;-64
2022/01/03 01:40:23;;;;;;;;;5.50;2.00;;;;;14.95;61.39;101539.69;5020911;28;46294;-64
2022/01/03 01:42:49;;;;;;;;;2.25;1.00;;;;;14.98;61.34;101546.75;5020795;28;45464;-64
2022/01/03 01:45:19;;;;;;;;;5.50;3.25;;;;;14.98;61.56;101542.25;5011828;28;45318;-64
2022/01/03 01:47:47;;;;;;;;;3.25;2.00;;;;;14.99;61.23;101541.31;5019402;28;45467;-64
2022/01/03 01:50:13;;;;;;;;;5.00;4.50;;;;;14.91;61.43;101535.34;5016991;28;45470;-64
2022/01/03 01:52:39;;;;;;;;;4.50;2.50;;;;;14.93;61.59;101544.22;5019258;28;45302;-64
2022/01/03 01:55:09;;;;;;;;;3.75;2.00;;;;;14.94;61.61;101545.97;5026207;28;45237;-64
2022/01/03 01:57:44;;;;;;;;;4.25;2.75;;;;;14.95;61.43;101541.47;5022237;28;45364;-63
2022/01/03 02:00:13;;;;;;;;;3.75;2.00;;;;;14.92;61.60;101523.66;5018073;28;48146;-64
2022/01/03 02:02:57;;;;;;;;;5.25;1.50;;;;;14.87;61.38;101520.28;5019833;28;45615;-64
2022/01/03 02:05:43;;;;;;;;;2.25;1.75;;;;;14.83;61.78;101524.00;5002599;28;45321;-64
2022/01/03 02:08:12;;;;;;;;;3.75;2.00;;;;;14.83;61.59;101524.00;5020785;28;45227;-64
2022/01/03 02:11:01;;;;;;;;;5.00;1.75;;;;;14.81;61.83;101528.56;5020058;28;45304;-64
2022/01/03 02:13:28;;;;;;;;;4.75;1.75;;;;;14.82;61.66;101533.03;5024743;28;45300;-64
2022/01/03 02:16:03;;;;;;;;;3.50;2.00;;;;;14.82;62.30;101535.72;5019440;28;45349;-64
2022/01/03 02:18:29;;;;;;;;;3.00;1.50;;;;;14.79;61.81;101534.00;5018804;28;45447;-64
2022/01/03 02:20:55;;;;;;;;;5.75;2.00;;;;;14.80;61.98;101543.81;5019986;28;46288;-64
2022/01/03 02:23:21;;;;;;;;;1.75;1.75;;;;;14.82;61.71;101541.94;5002476;28;45171;-64
2022/01/03 02:25:46;;;;;;;;;2.75;1.50;;;;;14.82;61.83;101531.19;5020179;28;45546;-64
2022/01/03 02:28:12;;;;;;;;;3.50;1.00;;;;;14.84;61.84;101538.34;5018582;28;45393;-64
2022/01/03 02:30:38;;;;;;;;;3.25;1.50;;;;;14.77;61.89;101530.50;5020183;28;46296;-64
2022/01/03 02:33:04;;;;;;;;;5.50;2.50;;;;;14.84;61.75;101539.19;5018710;28;45474;-64
2022/01/03 02:35:33;;;;;;;;;5.00;1.00;;;;;14.82;61.83;101544.63;5020044;28;45308;-63
2022/01/03 02:37:59;;;;;;;;;2.00;1.75;;;;;14.80;61.95;101554.56;5018653;28;45985;-64
2022/01/03 02:40:24;;;;;;;;;2.00;2.00;;;;;14.76;62.11;101544.84;5019919;28;45350;-64
2022/01/03 02:42:50;;;;;;;;;2.50;1.50;;;;;14.82;61.94;101547.31;5019902;28;45441;-64
2022/01/03 02:45:22;;;;;;;;;7.75;1.00;;;;;14.80;62.04;101554.56;5018603;28;45444;-63
2022/01/03 02:47:49;;;;;;;;;5.50;1.00;;;;;14.76;61.97;101539.47;5019502;28;45498;-64
2022/01/03 02:50:16;;;;;;;;;5.25;3.25;;;;;14.75;61.92;101535.06;5019406;28;45422;-64
2022/01/03 02:52:42;;;;;;;;;2.75;2.75;;;;;14.73;62.01;101523.47;5019734;28;45489;-64
2022/01/03 02:55:09;;;;;;;;;4.25;1.00;;;;;14.78;62.32;101543.00;5019931;28;45429;-64
2022/01/03 02:57:40;;;;;;;;;3.00;1.50;;;;;14.78;62.00;101547.50;5019618;28;45582;-64
2022/01/03 03:00:09;;;;;;;;;3.50;2.00;;;;;14.73;62.11;101539.59;5018415;28;47211;-64
2022/01/03 03:02:34;;;;;;;;;1.50;1.00;;;;;14.72;62.36;101540.53;5022138;28;47367;-64
2022/01/03 03:05:02;;;;;;;;;4.00;2.00;;;;;14.74;62.27;101540.50;5019755;28;45368;-64
2022/01/03 03:07:29;;;;;;;;;6.50;2.00;;;;;14.75;62.23;101532.38;5019485;28;45609;-64
2022/01/03 03:09:56;;;;;;;;;2.75;2.50;;;;;14.75;62.36;101529.69;5020047;28;45234;-64
2022/01/03 03:12:23;;;;;;;;;3.00;3.00;;;;;14.76;62.43;101515.28;5023338;28;45324;-64
2022/01/03 03:14:49;;;;;;;;;3.75;1.50;;;;;14.76;62.13;101519.81;5021006;28;45423;-64
2022/01/03 03:17:17;;;;;;;;;1.00;1.00;;;;;14.75;62.50;101521.63;5020279;28;45338;-63
2022/01/03 03:19:55;;;;;;;;;5.00;1.75;;;;;14.74;62.49;101511.78;5016715;28;47113;-64
2022/01/03 03:22:22;;;;;;;;;2.25;2.25;;;;;14.73;62.36;101514.53;5005424;28;45338;-64
2022/01/03 03:24:47;;;;;;;;;2.00;2.00;;;;;14.72;62.59;101516.34;5021778;28;45419;-64
2022/01/03 03:27:13;;;;;;;;;4.75;2.50;;;;;14.75;62.54;101515.34;5022529;28;45467;-64
2022/01/03 03:29:47;;;;;;;;;1.75;1.25;;;;;14.70;62.22;101504.78;5022954;28;46390;-64
2022/01/03 03:32:13;;;;;;;;;6.75;4.00;;;;;14.70;62.67;101512.84;5023034;28;45570;-64
2022/01/03 03:34:39;;;;;;;;;5.00;3.00;;;;;14.75;62.50;101518.03;5022798;28;45392;-63
2022/01/03 03:37:05;;;;;;;;;4.25;2.25;;;;;14.76;62.31;101504.53;5025688;28;45475;-64
2022/01/03 03:39:33;;;;;;;;;2.50;2.25;;;;;14.72;62.46;101508.28;5022792;28;46112;-64
2022/01/03 03:41:59;;;;;;;;;4.25;2.00;;;;;14.73;62.42;101511.84;5022639;28;45233;-63
2022/01/03 03:44:24;;;;;;;;;2.75;1.75;;;;;14.71;62.21;101511.03;5022906;28;45474;-64
2022/01/03 03:46:50;;;;;;;;;4.25;2.25;;;;;14.69;62.66;101507.53;5014630;28;45471;-64
2022/01/03 03:49:15;;;;;;;;;1.00;1.00;;;;;14.67;62.63;101499.53;5020428;28;45347;-64
2022/01/03 03:51:41;;;;;;;;;3.00;1.00;;;;;14.68;62.63;101497.72;5029167;28;45505;-64
2022/01/03 03:54:06;;;;;;;;;2.00;1.75;;;;;14.70;62.37;101493.16;5026252;28;45356;-64
2022/01/03 03:56:32;;;;;;;;;3.00;3.00;;;;;14.70;62.60;101495.84;5022274;28;45502;-64
2022/01/03 03:58:57;;;;;;;;;2.25;1.75;;;;;14.70;62.63;101501.22;5022373;28;46270;-64
2022/01/03 04:01:23;;;;;;;;;2.75;1.00;;;;;14.70;62.82;101493.16;5022368;28;45358;-63
2022/01/03 04:03:48;;;;;;;;;5.00;2.25;;;;;14.68;62.91;101487.81;5022534;28;45315;-64
2022/01/03 04:06:14;;;;;;;;;1.25;1.25;;;;;14.74;62.49;101492.13;5022072;28;45430;-64
2022/01/03 04:08:39;;;;;;;;;4.75;3.00;;;;;14.73;62.62;101475.09;5022158;28;45951;-63
2022/01/03 04:11:04;;;;;;;;;3.00;2.00;;;;;14.72;62.65;101467.97;5021694;28;45390;-63
2022/01/03 04:13:30;;;;;;;;;5.50;2.00;;;;;14.77;62.74;101473.19;5022041;28;45431;-63
2022/01/03 04:15:55;;;;;;;;;6.00;1.75;;;;;14.72;62.56;101465.28;5022448;28;45373;-64
2022/01/03 04:18:21;;;;;;;;;2.00;1.00;;;;;14.74;62.59;101468.78;5020767;28;47557;-64
2022/01/03 04:20:46;;;;;;;;;4.50;2.25;;;;;14.71;62.66;101460.84;5022180;28;45452;-64
2022/01/03 04:23:12;;;;;;;;;2.75;1.75;;;;;14.72;62.53;101464.44;5024680;28;45700;-64
2022/01/03 04:25:38;;;;;;;;;3.00;2.00;;;;;14.74;62.38;101466.09;5021974;28;46572;-63
2022/01/03 04:28:04;;;;;;;;;3.25;2.50;;;;;14.74;62.49;101458.03;5022058;28;45438;-63
2022/01/03 04:30:30;;;;;;;;;2.25;1.75;;;;;14.74;62.46;101457.19;5022070;28;45432;-64
2022/01/03 04:32:55;;;;;;;;;4.00;1.25;;;;;14.73;62.54;101453.59;5022203;28;45169;-64
2022/01/03 04:35:21;;;;;;;;;2.25;1.00;;;;;14.75;62.54;101454.44;5021592;28;45530;-64
2022/01/03 04:37:46;;;;;;;;;2.75;2.75;;;;;14.73;62.39;101456.28;5021900;28;45999;-64
2022/01/03 04:40:11;;;;;;;;;3.00;2.00;;;;;14.70;62.76;101448.38;5021533;28;45437;-63
2022/01/03 04:42:37;;;;;;;;;3.00;2.00;;;;;14.71;62.44;101444.72;5003741;28;45520;-64
2022/01/03 04:45:03;;;;;;;;;2.50;2.00;;;;;14.71;62.52;101441.16;5021857;28;45573;-64
2022/01/03 04:47:28;;;;;;;;;3.25;3.00;;;;;14.69;62.24;101433.16;5003823;28;47309;-63
2022/01/03 04:49:54;;;;;;;;;2.00;1.00;;;;;14.64;62.28;101429.78;5018118;28;45400;-64
2022/01/03 04:52:19;;;;;;;;;5.25;3.00;;;;;14.68;62.19;101430.53;5021527;28;45312;-64
2022/01/03 04:54:44;;;;;;;;;6.00;3.50;;;;;14.72;62.38;101449.16;5026916;28;45544;-63
2022/01/03 04:57:10;;;;;;;;;2.00;1.00;;;;;14.70;62.42;101444.78;5026310;28;45953;-64
2022/01/03 04:59:35;;;;;;;;;4.00;2.00;;;;;14.64;62.22;101440.53;5021757;28;45392;-63
2022/01/03 05:02:03;;;;;;;;;3.50;2.25;;;;;14.69;62.21;101437.66;5027362;28;45383;-64
2022/01/03 05:04:28;;;;;;;;;1.00;1.00;;;;;14.69;62.27;101443.91;5020991;28;45428;-64
2022/01/03 05:06:54;;;;;;;;;4.25;1.00;;;;;14.65;62.37;101436.91;5021367;28;46033;-64
2022/01/03 05:09:19;;;;;;;;;1.75;0.00;;;;;14.67;62.33;101432.34;5021790;28;45387;-63
2022/01/03 05:11:45;;;;;;;;;2.00;2.00;;;;;14.67;62.25;101431.44;5008843;28;45444;-63
2022/01/03 05:14:10;;;;;;;;;1.00;1.00;;;;;14.67;62.44;101429.66;5021571;28;45249;-64
2022/01/03 05:16:36;;;;;;;;;5.75;2.75;;;;;14.63;62.36;101423.53;5019328;28;46032;-63
2022/01/03 05:19:01;;;;;;;;;3.25;1.50;;;;;14.63;62.50;101426.22;5016428;28;45640;-64
2022/01/03 05:21:27;;;;;;;;;1.75;1.75;;;;;14.61;62.39;101424.53;5016260;28;45409;-62
2022/01/03 05:23:52;;;;;;;;;4.00;1.50;;;;;14.61;62.51;101425.38;5021196;28;45592;-62
2022/01/03 05:26:18;;;;;;;;;5.00;3.00;;;;;14.60;62.82;101418.28;5020440;28;45322;-62
2022/01/03 05:28:45;;;;;;;;;2.00;1.00;;;;;14.56;62.60;101416.59;5020229;28;45315;-62
2022/01/03 05:31:12;;;;;;;;;1.25;1.25;;;;;14.61;62.84;101428.06;5019311;28;45380;-62
2022/01/03 05:33:38;;;;;;;;;3.00;2.00;;;;;14.61;62.76;101432.56;5019380;28;45567;-62
2022/01/03 05:36:03;;;;;;;;;5.25;2.00;;;;;14.59;62.59;101431.78;5019600;28;46042;-62
2022/01/03 05:38:29;;;;;;;;;4.00;2.00;;;;;14.58;62.37;101430.88;5020017;28;45599;-62
2022/01/03 05:40:54;;;;;;;;;4.50;2.00;;;;;14.59;62.66;101426.41;5017314;28;45284;-63
2022/01/03 05:43:20;;;;;;;;;3.75;2.00;;;;;14.56;62.47;101427.34;5020258;28;45226;-63
2022/01/03 05:45:46;;;;;;;;;6.00;2.00;;;;;14.60;62.88;101433.50;5020161;28;46121;-63
2022/01/03 05:48:11;;;;;;;;;3.75;2.00;;;;;14.59;62.50;101427.25;5021546;28;45452;-63
2022/01/03 05:50:36;;;;;;;;;2.75;1.75;;;;;14.56;62.77;101423.78;5017229;28;45578;-63
2022/01/03 05:53:02;;;;;;;;;6.00;2.00;;;;;14.54;63.04;101422.97;5018775;28;45522;-63
2022/01/03 05:55:27;;;;;;;;;5.00;3.25;;;;;14.54;62.91;101423.84;5020172;28;46320;-63
2022/01/03 05:57:53;;;;;;;;;3.50;2.50;;;;;14.49;62.69;101417.78;5019732;28;45778;-63
2022/01/03 06:00:20;;;;;;;;;2.00;2.00;;;;;14.58;62.85;101429.97;5019240;28;45726;-63
2022/01/03 06:02:45;;;;;;;;;4.00;4.00;;;;;14.57;62.63;101431.78;5000120;28;45776;-62
2022/01/03 06:05:20;;;;;;;;;1.25;1.25;;;;;14.64;62.60;101433.34;5018879;28;47140;-63
2022/01/03 06:07:46;;;;;;;;;5.00;2.00;;;;;14.63;62.83;101434.28;5019611;28;45261;-63
2022/01/03 06:10:16;;;;;;;;;3.50;1.00;;;;;14.66;62.55;101432.41;5019118;28;45540;-63
2022/01/03 06:12:42;;;;;;;;;2.50;2.00;;;;;14.65;62.80;101431.53;5012645;28;46149;-63
2022/01/03 06:15:08;;;;;;;;;4.75;1.00;;;;;14.66;62.51;101427.91;5016789;28;47025;-63
2022/01/03 06:17:33;;;;;;;;;6.00;2.00;;;;;14.65;62.72;101426.16;5019657;28;45458;-62
2022/01/03 06:19:58;;;;;;;;;7.00;3.25;;;;;14.59;62.55;101416.50;5018928;28;45479;-63
2022/01/03 06:22:24;;;;;;;;;5.00;2.50;;;;;14.58;62.54;101419.22;5001159;28;45527;-63
2022/01/03 06:24:49;;;;;;;;;5.50;2.00;;;;;14.59;62.79;101429.94;5022533;28;45474;-63
2022/01/03 06:27:16;;;;;;;;;3.50;2.00;;;;;14.53;62.56;101419.38;5018916;28;45880;-63
2022/01/03 06:29:41;;;;;;;;;2.25;2.25;;;;;14.59;62.91;101427.25;5020255;28;45532;-62
2022/01/03 06:32:07;;;;;;;;;3.75;2.50;;;;;14.59;62.93;101423.72;5018320;28;45218;-62
2022/01/03 06:34:32;;;;;;;;;3.50;1.50;;;;;14.52;62.75;101419.47;5019363;28;45397;-62
2022/01/03 06:36:57;;;;;;;;;5.00;2.00;;;;;14.54;62.78;101421.16;5019978;28;45318;-62
2022/01/03 06:39:23;;;;;;;;;3.00;2.00;;;;;14.50;63.09;101415.94;5019553;28;45505;-63
2022/01/03 06:41:48;;;;;;;;;1.50;1.00;;;;;14.51;62.95;101415.91;5021642;28;45432;-65
2022/01/03 06:44:14;;;;;;;;;5.00;3.50;;;;;14.50;63.02;101410.56;5019200;28;46016;-64
2022/01/03 06:46:39;;;;;;;;;4.00;3.00;;;;;14.43;63.10;101396.50;5017612;28;45535;-65
2022/01/03 06:49:06;;;;;;;;;3.50;1.50;;;;;14.44;63.16;101391.06;5017247;28;45414;-64
2022/01/03 06:51:34;;;;;;;;;5.25;3.00;;;;;14.49;62.89;101393.59;5019625;28;45443;-64
2022/01/03 06:54:13;;;;;;;;;3.00;2.00;;;;;14.53;62.89;101400.59;5017923;28;46150;-64
2022/01/03 06:56:40;;;;;;;;;3.00;2.00;;;;;14.58;62.85;101409.38;5018694;28;45274;-64
2022/01/03 06:59:06;;;;;;;;;7.25;2.75;;;;;14.50;62.59;101394.47;5000231;28;45290;-64
2022/01/03 07:01:32;;;;;;;;;4.25;3.25;;;;;14.57;62.88;101406.75;5015338;28;45597;-65
2022/01/03 07:03:58;;;;;;;;;4.25;2.50;;;;;14.56;63.03;101405.84;5018663;28;45456;-64
2022/01/03 07:06:23;;;;;;;;;5.50;4.00;;;;;14.44;62.79;101393.75;5017554;28;45503;-64
2022/01/03 07:08:48;;;;;;;;;5.75;3.00;;;;;14.46;62.95;101399.94;5019045;28;45387;-64
2022/01/03 07:11:14;;;;;;;;;3.00;1.50;;;;;14.45;63.21;101384.78;5016199;28;46085;-63
2022/01/03 07:13:44;;;;;;;;;4.25;3.25;;;;;14.50;62.96;101378.34;5016936;28;45499;-63
2022/01/03 07:18:56;;;;;;;;;4.25;3.00;;;;;14.49;63.44;101377.47;5005303;28;45238;-64
2022/01/03 07:21:24;;;;;;;;;7.00;3.00;;;;;14.44;63.16;101376.78;5018975;28;45353;-64
2022/01/03 07:23:50;;;;;;;;;4.50;2.00;;;;;14.49;63.35;101387.34;5010350;28;47127;-64
2022/01/03 07:26:16;;;;;;;;;3.75;2.25;;;;;14.49;63.15;101380.16;4994631;28;45404;-63
2022/01/03 07:28:42;;;;;;;;;2.75;2.25;;;;;14.49;63.18;101385.53;5012442;28;45486;-63
2022/01/03 07:31:07;;;;;;;;;3.25;1.50;;;;;14.49;63.66;101384.66;5001449;28;45441;-63
2022/01/03 07:33:32;;;;;;;;;9.25;3.00;;;;;14.45;63.40;101379.41;5021798;28;48237;-63
2022/01/03 07:35:58;;;;;;;;;4.25;2.00;;;;;14.48;63.31;101388.28;5003291;28;45422;-63
2022/01/03 07:38:23;;;;;;;;;3.50;2.00;;;;;14.49;63.12;101376.63;5014398;28;45907;-64
2022/01/03 07:40:48;;;;;;;;;3.00;3.00;;;;;14.48;63.49;101380.22;5019198;28;45578;-65
2022/01/03 07:43:14;;;;;;;;;5.00;3.00;;;;;14.45;63.49;101373.19;5021826;28;46451;-65
2022/01/03 07:45:39;;;;;;;;;4.00;2.00;;;;;14.48;63.35;101373.03;5000959;28;45325;-65
2022/01/03 07:48:04;;;;;;;;;3.00;1.00;;;;;14.49;63.45;101376.63;5013963;28;45526;-65
2022/01/03 07:50:30;;;;;;;;;2.25;2.00;;;;;14.46;63.31;101372.22;5011892;28;45320;-65
2022/01/03 07:52:58;;;;;;;;;4.00;2.00;;;;;14.46;63.78;101364.16;5013001;28;46372;-65
2022/01/03 07:55:24;;;;;;;;;11.00;3.00;;;;;14.53;63.60;101367.47;5001569;28;45306;-65
2022/01/03 07:57:49;;;;;;;;;4.00;3.00;;;;;14.55;63.39;101369.19;5022028;28;45468;-65
2022/01/03 08:00:16;;;;;;;;;3.25;3.00;;;;;14.52;63.29;101357.69;5020439;28;45422;-66
2022/01/03 08:02:42;;;;;;;;;4.00;3.25;;;;;14.52;63.18;101361.25;5017424;28;45373;-66
2022/01/03 08:05:10;;;;;;;;;8.25;4.50;;;;;14.57;63.62;101358.38;5019721;28;45491;-63
2022/01/03 08:07:36;;;;;;;;;6.25;3.00;;;;;14.52;63.69;101353.19;5013408;28;45597;-64
2022/01/03 08:10:04;;;;;;;;;3.00;2.75;;;;;14.54;63.63;101361.19;5019273;28;45562;-65
2022/01/03 08:12:30;;;;;;;;;6.00;2.25;;;;;14.46;63.39;101339.97;5016545;28;46150;-63
2022/01/03 08:14:55;;;;;;;;;6.00;2.75;;;;;14.60;63.67;101352.91;5019308;28;45438;-64
2022/01/03 08:17:21;;;;;;;;;6.00;2.25;;;;;14.61;63.59;101358.22;5019305;28;45456;-64
2022/01/03 08:19:46;;;;;;;;;5.50;3.00;;;;;14.58;63.47;101349.38;5019305;28;45506;-64
2022/01/03 08:22:11;;;;;;;;;3.50;1.50;;;;;14.60;63.74;101361.84;5018586;28;46917;-64
2022/01/03 08:24:37;;;;;;;;;4.25;2.00;;;;;14.56;63.54;101346.75;5024968;28;45523;-64
2022/01/03 08:27:02;;;;;;;;;4.25;3.00;;;;;14.59;63.76;101349.34;5019301;28;45301;-65
2022/01/03 08:29:28;;;;;;;;;4.00;4.00;;;;;14.39;63.90;101317.00;5018434;28;45381;-64
2022/01/03 08:31:53;;;;;;;;;5.50;3.00;;;;;14.56;63.79;101337.81;5016516;28;45948;-64
2022/01/03 08:34:18;;;;;;;;;4.50;3.00;;;;;14.58;63.89;101335.94;5000948;28;45504;-64
2022/01/03 08:36:44;;;;;;;;;7.00;3.00;;;;;14.55;63.72;101334.25;5002606;28;45489;-64
2022/01/03 08:39:10;;;;;;;;;6.25;2.75;;;;;14.61;63.96;101352.84;5006507;28;45500;-64
2022/01/03 08:41:36;;;;;;;;;11.50;5.75;;;;;14.58;63.71;101344.00;5021800;28;45860;-64
2022/01/03 08:44:01;;;;;;;;;4.25;3.00;;;;;14.60;63.70;101350.22;5020576;28;45472;-64
2022/01/03 08:46:26;;;;;;;;;3.00;3.00;;;;;14.53;63.92;101340.63;5025696;28;45651;-64
2022/01/03 08:48:53;;;;;;;;;5.00;3.00;;;;;14.56;63.95;101349.44;5018354;28;45383;-64
2022/01/03 08:51:18;;;;;;;;;6.50;3.75;;;;;14.50;64.31;101341.63;5017597;28;48133;-64
2022/01/03 08:53:44;;;;;;;;;3.00;2.50;;;;;14.50;64.04;101338.94;5019515;28;45387;-64
2022/01/03 08:56:09;;;;;;;;;2.75;2.00;;;;;14.49;64.07;101337.19;5018027;28;45977;-64
2022/01/03 08:58:35;;;;;;;;;4.00;1.75;;;;;14.49;64.38;101328.25;5010358;28;45443;-62
2022/01/03 09:01:01;;;;;;;;;3.50;3.50;;;;;14.50;64.41;101328.19;5010118;28;47359;-62
2022/01/03 09:03:26;;;;;;;;;6.25;4.50;;;;;14.50;64.48;101328.19;5015183;28;45727;-62
2022/01/03 09:05:53;;;;;;;;;6.50;2.50;;;;;14.46;64.59;101330.09;5025930;28;45884;-62
2022/01/03 09:08:21;;;;;;;;;5.50;3.50;;;;;14.55;64.42;101338.75;5017555;28;45696;-62
2022/01/03 09:10:47;;;;;;;;;7.00;3.25;;;;;14.54;64.20;101326.25;5017229;28;46355;-62
2022/01/03 09:13:12;;;;;;;;;7.75;4.00;;;;;14.55;64.33;101331.56;5019610;28;45460;-66
2022/01/03 09:15:37;;;;;;;;;3.50;3.25;;;;;14.54;64.24;101332.50;5023361;28;45583;-62
2022/01/03 09:18:03;;;;;;;;;5.25;2.00;;;;;14.51;64.28;101331.75;5018607;28;46663;-62
2022/01/03 09:20:28;;;;;;;;;6.25;2.75;;;;;14.53;64.45;101332.56;5016241;28;46159;-62
2022/01/03 09:22:57;;;;;;;;;6.00;2.00;;;;;14.51;64.35;101335.31;5015307;28;45356;-64
2022/01/03 09:30:53;;;;;;;;;4.75;2.00;;;;;14.55;64.51;101338.75;5022740;28;45352;-62
2022/01/03 09:33:18;;;;;;;;;7.00;4.00;;;;;14.54;64.77;101334.31;5018371;28;45576;-62
2022/01/03 09:35:45;;;;;;;;;6.50;4.50;;;;;14.54;64.94;101321.75;5018953;28;45554;-61
2022/01/03 09:38:11;;;;;;;;;5.00;2.25;;;;;14.55;64.60;101325.31;5018944;28;45420;-61
2022/01/03 09:40:40;;;;;;;;;5.00;2.25;;;;;14.53;64.62;101322.69;5020023;28;46196;-62
2022/01/03 09:43:11;;;;;;;;;4.25;2.00;;;;;14.54;64.68;101318.22;5017502;28;45428;-62
2022/01/03 09:45:37;;;;;;;;;2.25;2.00;;;;;14.49;64.45;101306.78;5012389;28;45352;-62
2022/01/03 09:48:04;;;;;;;;;3.00;1.00;;;;;14.54;64.62;101323.56;5018654;28;45496;-62
2022/01/03 09:50:32;;;;;;;;;4.50;3.50;;;;;14.56;64.99;101335.13;5015227;28;46288;-62
2022/01/03 09:53:00;;;;;;;;;4.25;3.00;;;;;14.51;64.68;101327.25;5014317;28;45298;-62
2022/01/03 09:55:25;;;;;;;;;4.00;3.75;;;;;14.50;64.74;101324.63;5018702;28;45620;-62
2022/01/03 09:57:51;;;;;;;;;4.00;2.00;;;;;14.56;64.77;101329.75;5018537;28;45618;-62
2022/01/03 10:00:22;;;;;;;;;3.75;2.00;;;;;14.55;65.07;101336.06;5019936;28;46121;-62
2022/01/03 10:02:48;;;;;;;;;4.75;2.50;;;;;14.59;64.79;101329.69;5021241;28;45475;-62
2022/01/03 10:05:13;;;;;;;;;4.50;3.00;;;;;14.59;64.87;101337.72;5028621;28;45419;-62
2022/01/03 10:07:40;;;;;;;;;5.00;3.25;;;;;14.58;64.74;101320.72;5015873;28;45400;-62
2022/01/03 10:10:07;;;;;;;;;5.00;3.50;;;;;14.57;64.59;101320.78;5022259;28;46281;-62
2022/01/03 10:12:34;;;;;;;;;5.00;1.50;;;;;14.55;64.44;101310.09;5014725;28;45469;-62
2022/01/03 10:14:59;;;;;;;;;2.00;2.00;;;;;14.56;64.82;101316.31;5019233;28;45388;-62
2022/01/03 10:17:25;;;;;;;;;4.00;3.00;;;;;14.52;64.94;101314.72;5018328;28;45706;-62
2022/01/03 10:19:58;;;;;;;;;3.50;2.25;;;;;14.55;64.93;101317.25;5016974;28;46099;-62
2022/01/03 10:22:29;;;;;;;;;8.00;2.00;;;;;14.52;64.91;101312.88;5017855;28;46006;-62
2022/01/03 10:24:56;;;;;;;;;5.75;3.00;;;;;14.49;65.02;101306.78;5001435;28;45363;-62
2022/01/03 10:27:23;;;;;;;;;5.50;1.75;;;;;14.52;65.04;101302.16;5022285;28;45704;-62
2022/01/03 10:29:57;;;;;;;;;5.00;2.00;;;;;14.56;64.81;101308.28;5016376;28;46253;-62
2022/01/03 10:32:31;;;;;;;;;3.75;2.00;;;;;14.57;65.07;101293.91;5017967;28;45436;-62
2022/01/03 10:35:15;;;;;;;;;3.25;2.00;;;;;14.57;64.84;101284.03;5022238;28;46394;-62
2022/01/03 10:37:40;;;;;;;;;5.50;2.75;;;;;14.59;64.44;101292.06;5004126;28;45912;-61
2022/01/03 10:40:25;;;;;;;;;4.25;2.25;;;;;14.59;64.64;101281.31;5017098;28;45796;-62
2022/01/03 10:42:51;;;;;;;;;3.00;2.75;;;;;14.56;64.68;101284.09;5017757;28;45431;-63
2022/01/03 10:45:28;;;;;;;;;3.00;1.50;;;;;14.56;64.57;101284.09;5017959;28;45428;-62
2022/01/03 10:47:53;;;;;;;;;3.25;3.00;;;;;14.50;64.74;101268.22;5010622;28;45455;-66
2022/01/03 10:50:20;;;;;;;;;7.00;2.50;;;;;14.52;64.63;101269.91;4998966;28;46860;-65
2022/01/03 10:52:47;;;;;;;;;5.00;3.00;;;;;14.51;64.62;101257.41;5017207;28;45466;-66
2022/01/03 10:55:35;;;;;;;;;4.50;1.75;;;;;14.52;64.78;101261.84;5021330;28;45491;-65
2022/01/03 10:58:03;;;;;;;;;3.00;2.75;;;;;14.53;64.71;101260.91;5012818;28;45619;-64
2022/01/03 11:00:37;;;;;;;;;2.50;2.50;;;;;14.53;64.71;101258.22;5017390;28;46224;-63
2022/01/03 11:03:07;;;;;;;;;2.50;1.75;;;;;14.52;64.95;101252.94;4996123;28;45766;-64
2022/01/03 11:05:37;;;;;;;;;6.50;1.25;;;;;14.52;64.72;101251.09;5017895;28;45310;-64
2022/01/03 11:10:44;;;;;;;;;3.00;2.00;;;;;14.45;64.49;101226.31;5011082;28;45610;-63
2022/01/03 11:13:16;;;;;;;;;2.50;1.75;;;;;14.46;64.83;101225.34;5013900;28;45731;-64
2022/01/03 11:15:56;;;;;;;;;3.25;2.75;;;;;14.52;64.97;101221.56;4998069;28;45388;-64
2022/01/03 11:18:35;;;;;;;;;4.00;2.25;;;;;14.50;64.89;101226.13;5017388;28;45385;-64
2022/01/03 11:21:00;;;;;;;;;3.75;3.75;;;;;14.54;65.00;101225.03;5010105;28;47239;-64
2022/01/03 11:23:25;;;;;;;;;5.00;2.00;;;;;14.51;64.79;101209.03;5014562;28;45472;-64
2022/01/03 11:25:53;;;;;;;;;3.50;2.25;;;;;14.54;64.86;101211.63;5013863;28;46996;-64
2022/01/03 11:28:21;;;;;;;;;4.50;2.75;;;;;14.56;64.80;101201.66;5018924;28;45472;-64
2022/01/03 11:30:47;;;;;;;;;5.25;3.00;;;;;14.55;64.75;101196.34;5012146;28;45936;-67
2022/01/03 11:33:14;;;;;;;;;2.25;1.75;;;;;14.54;64.74;101191.94;5020647;28;45467;-64
2022/01/03 11:35:46;;;;;;;;;5.75;3.00;;;;;14.53;64.43;101204.47;5004519;28;45433;-63